createdAt,value
2022-08-17T00:00:33.294Z,62.48
2022-08-17T00:03:03.004Z,63.31
2022-08-17T00:05:32.210Z,65.01
2022-08-17T00:07:59.122Z,64.35
2022-08-17T00:10:25.943Z,63.25
2022-08-17T00:12:53.029Z,63.28
2022-08-17T00:15:21.182Z,62.58
2022-08-17T00:17:50.248Z,62.75
2022-08-17T00:20:18.493Z,63.38
2022-08-17T00:22:50.369Z,63.71
2022-08-17T00:25:19.625Z,62.95
2022-08-17T00:27:46.829Z,63.68
2022-08-17T00:30:14.357Z,62.84
2022-08-17T00:33:11.678Z,63.88
2022-08-17T00:35:33.539Z,64.44
2022-08-17T00:38:00.391Z,64.87
2022-08-17T00:40:27.214Z,64.54
2022-08-17T00:43:17.633Z,63.94
2022-08-17T00:45:45.210Z,64.64
2022-08-17T00:48:29.547Z,64.02
2022-08-17T00:51:11.846Z,64.11
2022-08-17T00:53:43.524Z,64.17
2022-08-17T00:56:16.998Z,64.27
2022-08-17T00:58:44.174Z,64.34
2022-08-17T01:01:12.536Z,64.42
2022-08-17T01:03:50.248Z,64.23
2022-08-17T01:06:17.212Z,63.81
2022-08-17T01:08:44.584Z,63.34
2022-08-17T01:11:11.216Z,63.19
2022-08-17T01:13:41.894Z,64.13
2022-08-17T01:16:16.813Z,63.97
2022-08-17T01:18:47.036Z,63.72
2022-08-17T01:21:26.714Z,64.33
2022-08-17T01:23:53.505Z,64.77
2022-08-17T01:26:20.377Z,64.24
2022-08-17T01:28:54.667Z,63.68
2022-08-17T01:31:25.133Z,64.50
2022-08-17T01:33:52.234Z,63.97
2022-08-17T01:36:19.159Z,64.76
2022-08-17T01:38:45.886Z,64.26
2022-08-17T01:41:15.721Z,64.08
2022-08-17T01:43:55.792Z,64.24
2022-08-17T01:46:27.174Z,64.93
2022-08-17T01:48:56.125Z,65.00
2022-08-17T01:51:24.945Z,65.46
2022-08-17T01:53:57.510Z,65.12
2022-08-17T01:56:26.140Z,65.27
2022-08-17T01:58:52.981Z,64.19
2022-08-17T02:01:22.995Z,63.96
2022-08-17T02:03:59.465Z,63.97
2022-08-17T02:06:52.618Z,63.58
2022-08-17T02:09:22.280Z,63.58
2022-08-17T02:11:50.261Z,64.42
2022-08-17T02:14:16.919Z,64.29
2022-08-17T02:16:44.198Z,65.23
2022-08-17T02:19:15.743Z,65.09
2022-08-17T02:21:44.923Z,64.00
2022-08-17T02:24:15.890Z,63.84
2022-08-17T02:26:42.778Z,64.29
2022-08-17T02:29:09.417Z,64.16
2022-08-17T02:31:36.121Z,64.07
2022-08-17T02:34:04.735Z,64.45
2022-08-17T02:36:36.512Z,64.36
2022-08-17T02:39:08.761Z,64.26
2022-08-17T02:41:36.598Z,65.04
2022-08-17T02:44:04.401Z,64.74
2022-08-17T02:46:32.292Z,63.94
2022-08-17T02:48:59.861Z,64.47
2022-08-17T02:51:27.365Z,64.83
2022-08-17T02:54:35.844Z,63.42
2022-08-17T02:56:41.126Z,64.90
2022-08-17T02:59:07.774Z,65.25
2022-08-17T03:01:34.625Z,64.85
2022-08-17T03:04:01.355Z,65.56
2022-08-17T03:06:29.667Z,65.03
2022-08-17T03:08:56.282Z,65.45
2022-08-17T03:11:23.712Z,65.07
2022-08-17T03:13:50.278Z,64.58
2022-08-17T03:16:17.002Z,64.86
2022-08-17T03:18:43.669Z,66.67
2022-08-17T03:21:10.618Z,66.15
2022-08-17T03:23:42.172Z,66.43
2022-08-17T03:26:12.381Z,65.44
2022-08-17T03:28:43.060Z,64.71
2022-08-17T03:31:09.868Z,65.00
2022-08-17T03:33:36.629Z,64.68
2022-08-17T03:36:03.573Z,65.11
2022-08-17T03:38:30.458Z,65.44
2022-08-17T03:41:07.064Z,65.24
2022-08-17T03:43:34.695Z,65.34
2022-08-17T03:46:34.637Z,66.09
2022-08-17T03:49:25.450Z,66.47
2022-08-17T03:52:14.765Z,66.31
2022-08-17T03:55:02.148Z,66.68
2022-08-17T03:57:30.350Z,65.91
2022-08-17T03:59:57.215Z,64.92
2022-08-17T04:02:34.187Z,65.56
2022-08-17T04:05:01.024Z,66.14
2022-08-17T04:07:30.615Z,66.24
2022-08-17T04:09:58.276Z,66.31
2022-08-17T04:12:26.758Z,66.11
2022-08-17T04:14:54.988Z,65.81
2022-08-17T04:17:27.905Z,65.49
2022-08-17T04:19:55.968Z,65.50
2022-08-17T04:22:32.897Z,65.22
2022-08-17T04:25:17.112Z,65.33
2022-08-17T04:27:43.987Z,66.09
2022-08-17T04:30:11.227Z,65.85
2022-08-17T04:33:05.406Z,65.13
2022-08-17T04:35:39.568Z,66.59
2022-08-17T04:38:08.746Z,66.36
2022-08-17T04:40:54.477Z,66.64
2022-08-17T04:43:24.492Z,66.64
2022-08-17T04:46:00.745Z,68.06
2022-08-17T04:48:36.574Z,66.85
2022-08-17T04:51:11.234Z,66.88
2022-08-17T04:53:44.957Z,66.83
2022-08-17T04:56:16.576Z,66.56
2022-08-17T04:58:47.911Z,66.69
2022-08-17T05:01:23.212Z,66.93
2022-08-17T05:03:52.680Z,66.76
2022-08-17T05:06:19.646Z,66.87
2022-08-17T05:08:46.381Z,66.20
2022-08-17T05:11:14.253Z,65.08
2022-08-17T05:13:41.013Z,65.12
2022-08-17T05:16:09.096Z,64.58
2022-08-17T05:18:37.314Z,65.74
2022-08-17T05:21:04.440Z,65.69
2022-08-17T05:23:41.786Z,65.61
2022-08-17T05:26:25.423Z,65.59
2022-08-17T05:28:57.245Z,64.52
2022-08-17T05:31:26.690Z,64.49
2022-08-17T05:33:53.584Z,66.00
2022-08-17T05:36:37.986Z,66.69
2022-08-17T05:39:07.075Z,66.06
2022-08-17T05:41:33.686Z,66.55
2022-08-17T05:44:00.411Z,66.24
2022-08-17T05:46:38.000Z,66.73
2022-08-17T05:49:11.117Z,67.35
2022-08-17T05:52:19.919Z,66.54
2022-08-17T05:55:18.940Z,66.71
2022-08-17T05:57:56.100Z,67.01
2022-08-17T06:00:48.302Z,66.39
2022-08-17T06:03:48.659Z,65.62
2022-08-17T06:06:41.600Z,65.63
2022-08-17T06:09:33.692Z,65.57
2022-08-17T06:12:26.970Z,65.02
2022-08-17T06:15:12.966Z,64.90
2022-08-17T06:17:41.275Z,63.70
2022-08-17T06:20:12.570Z,63.93
2022-08-17T06:22:48.470Z,62.45
2022-08-17T06:25:33.768Z,61.69
2022-08-17T06:28:39.104Z,61.85
2022-08-17T06:31:15.616Z,61.96
2022-08-17T06:33:46.409Z,62.22
2022-08-17T06:36:50.586Z,61.74
2022-08-17T06:39:40.869Z,61.89
2022-08-17T06:43:06.180Z,61.28
2022-08-17T06:45:17.719Z,61.02
2022-08-17T06:47:44.340Z,61.78
2022-08-17T06:50:27.192Z,60.35
2022-08-17T06:53:13.760Z,59.44
2022-08-17T06:55:52.121Z,59.64
2022-08-17T06:58:24.383Z,59.40
2022-08-17T07:01:01.184Z,58.83
2022-08-17T07:03:46.305Z,59.52
2022-08-17T07:06:18.444Z,59.07
2022-08-17T07:08:54.023Z,58.86
2022-08-17T07:11:30.036Z,57.62
2022-08-17T07:14:17.357Z,58.00
2022-08-17T07:16:47.912Z,57.58
2022-08-17T07:19:17.238Z,56.86
2022-08-17T07:21:57.283Z,57.65
2022-08-17T07:24:43.221Z,55.59
2022-08-17T07:27:20.906Z,56.24
2022-08-17T07:29:50.591Z,55.38
2022-08-17T07:32:24.581Z,55.36
2022-08-17T07:35:11.115Z,54.98
2022-08-17T07:37:51.165Z,54.84
2022-08-17T07:40:23.066Z,54.62
2022-08-17T07:43:21.810Z,52.91
2022-08-17T07:46:10.768Z,53.18
2022-08-17T07:48:39.658Z,53.43
2022-08-17T07:51:17.271Z,52.79
2022-08-17T07:53:45.343Z,52.95
2022-08-17T07:56:32.494Z,52.99
2022-08-17T07:59:23.508Z,51.91
2022-08-17T08:01:57.484Z,50.39
2022-08-17T08:05:00.554Z,49.43
2022-08-17T08:07:34.786Z,48.16
2022-08-17T08:10:04.605Z,48.77
2022-08-17T08:12:42.976Z,47.67
2022-08-17T08:15:18.909Z,47.23
2022-08-17T08:17:57.626Z,48.13
2022-08-17T08:20:51.059Z,46.80
2022-08-17T08:23:32.455Z,46.97
2022-08-17T08:25:59.578Z,46.92
2022-08-17T08:28:26.149Z,46.49
2022-08-17T08:31:03.885Z,45.89
2022-08-17T08:34:09.360Z,46.24
2022-08-17T08:37:32.728Z,46.43
2022-08-17T08:40:28.405Z,44.57
2022-08-17T08:43:19.587Z,43.07
2022-08-17T08:46:01.536Z,44.81
2022-08-17T08:48:56.376Z,43.32
2022-08-17T08:51:46.515Z,42.77
2022-08-17T08:54:33.529Z,42.31
2022-08-17T08:57:35.873Z,42.41
2022-08-17T09:00:20.173Z,42.05
2022-08-17T09:03:06.234Z,43.34
2022-08-17T09:05:55.995Z,41.83
2022-08-17T09:08:52.974Z,41.52
2022-08-17T09:11:31.783Z,41.05
2022-08-17T09:14:21.337Z,40.31
2022-08-17T09:16:58.501Z,40.85
2022-08-17T09:19:34.116Z,41.00
2022-08-17T09:22:12.111Z,41.19
2022-08-17T09:24:43.791Z,39.93
2022-08-17T09:27:15.400Z,40.31
2022-08-17T09:29:50.306Z,40.01
2022-08-17T09:32:31.402Z,40.42
2022-08-17T09:35:03.847Z,40.05
2022-08-17T09:37:43.070Z,40.14
2022-08-17T09:40:14.075Z,41.47
2022-08-17T09:42:52.740Z,38.76
2022-08-17T09:45:40.582Z,39.51
2022-08-17T09:48:33.665Z,38.06
2022-08-17T09:51:14.010Z,38.95
2022-08-17T09:53:43.316Z,38.68
2022-08-17T09:56:25.017Z,37.29
2022-08-17T09:59:06.809Z,36.52
2022-08-17T10:01:37.048Z,37.05
2022-08-17T10:04:20.345Z,36.36
2022-08-17T10:07:18.894Z,35.99
2022-08-17T10:09:57.581Z,35.87
2022-08-17T10:12:29.901Z,35.18
2022-08-17T10:15:19.399Z,34.25
2022-08-17T10:18:13.366Z,34.20
2022-08-17T10:21:17.551Z,33.17
2022-08-17T10:24:05.256Z,33.43
2022-08-17T10:26:43.006Z,33.37
2022-08-17T10:29:48.530Z,33.77
2022-08-17T10:32:56.922Z,33.26
2022-08-17T10:35:57.210Z,32.75
2022-08-17T10:38:41.325Z,32.86
2022-08-17T10:41:24.179Z,31.49
2022-08-17T10:44:38.574Z,32.77
2022-08-17T10:47:11.764Z,30.35
2022-08-17T10:49:49.613Z,32.61
2022-08-17T10:52:42.539Z,32.63
2022-08-17T10:55:14.420Z,30.68
2022-08-17T10:57:44.845Z,30.28
2022-08-17T11:00:15.831Z,30.69
2022-08-17T11:02:51.142Z,30.37
2022-08-17T11:05:33.210Z,29.06
2022-08-17T11:08:12.726Z,28.26
2022-08-17T11:11:10.481Z,24.54
2022-08-17T11:14:06.801Z,22.70
2022-08-17T11:16:54.901Z,21.16
2022-08-17T11:19:27.577Z,20.26
2022-08-17T11:22:15.707Z,20.23
2022-08-17T11:24:51.348Z,18.14
2022-08-17T11:27:34.421Z,18.48
2022-08-17T11:30:07.942Z,18.89
2022-08-17T11:32:44.754Z,19.22
2022-08-17T11:35:20.778Z,21.07
2022-08-17T11:37:53.409Z,20.15
2022-08-17T11:40:46.440Z,20.46
2022-08-17T11:43:42.934Z,19.66
2022-08-17T11:46:18.808Z,19.08
2022-08-17T11:49:38.231Z,19.47
2022-08-17T11:52:05.232Z,19.78
2022-08-17T11:54:46.176Z,20.15
2022-08-17T11:57:29.456Z,20.68
2022-08-17T11:59:59.042Z,21.07
2022-08-17T12:02:31.704Z,22.03
2022-08-17T12:05:12.427Z,22.00
2022-08-17T12:07:46.340Z,23.12
2022-08-17T12:10:17.691Z,22.64
2022-08-17T12:12:46.290Z,23.49
2022-08-17T12:15:19.663Z,23.53
2022-08-17T12:17:54.748Z,24.44
2022-08-17T12:20:30.414Z,25.92
2022-08-17T12:23:15.828Z,25.00
2022-08-17T12:25:55.545Z,25.76
2022-08-17T12:28:22.789Z,24.90
2022-08-17T12:30:52.008Z,25.31
2022-08-17T12:33:25.265Z,25.64
2022-08-17T12:36:05.086Z,25.30
2022-08-17T12:38:35.199Z,24.59
2022-08-17T12:41:24.589Z,24.98
2022-08-17T12:44:16.849Z,25.45
2022-08-17T12:46:51.559Z,24.49
2022-08-17T12:49:27.052Z,25.05
2022-08-17T12:52:01.964Z,24.63
2022-08-17T12:54:52.635Z,24.21
2022-08-17T12:57:45.294Z,23.33
2022-08-17T13:00:29.910Z,23.57
2022-08-17T13:02:59.726Z,23.04
2022-08-17T13:05:31.924Z,21.25
2022-08-17T13:08:00.354Z,22.30
2022-08-17T13:10:32.476Z,20.82
2022-08-17T13:13:04.965Z,22.19
2022-08-17T13:15:44.816Z,22.71
2022-08-17T13:18:36.576Z,24.21
2022-08-17T13:21:03.397Z,23.50
2022-08-17T13:23:32.249Z,23.27
2022-08-17T13:26:07.132Z,23.35
2022-08-17T13:28:36.782Z,22.93
2022-08-17T13:31:22.373Z,21.77
2022-08-17T13:33:49.193Z,22.21
2022-08-17T13:36:30.443Z,20.75
2022-08-17T13:39:15.506Z,20.59
2022-08-17T13:41:42.994Z,20.65
2022-08-17T13:44:39.315Z,18.73
2022-08-17T13:47:17.126Z,18.75
2022-08-17T13:49:49.267Z,18.65
2022-08-17T13:52:43.768Z,20.11
2022-08-17T13:55:22.638Z,21.23
2022-08-17T13:57:52.140Z,21.62
2022-08-17T14:00:36.301Z,20.27
2022-08-17T14:03:05.235Z,19.19
2022-08-17T14:05:33.779Z,18.64
2022-08-17T14:08:06.843Z,17.82
2022-08-17T14:10:36.529Z,17.37
2022-08-17T14:13:04.209Z,17.57
2022-08-17T14:15:56.124Z,20.11
2022-08-17T14:18:35.435Z,19.73
2022-08-17T14:21:08.360Z,19.98
2022-08-17T14:23:35.990Z,20.66
2022-08-17T14:26:03.435Z,23.15
2022-08-17T14:28:30.124Z,22.98
2022-08-17T14:31:00.825Z,23.46
2022-08-17T14:33:28.720Z,23.90
2022-08-17T14:35:57.509Z,25.93
2022-08-17T14:38:24.756Z,25.24
2022-08-17T14:40:52.164Z,24.34
2022-08-17T14:43:20.933Z,27.21
2022-08-17T14:45:47.708Z,26.11
2022-08-17T14:48:14.385Z,25.77
2022-08-17T14:50:42.948Z,26.26
2022-08-17T14:53:12.046Z,26.04
2022-08-17T14:55:40.554Z,26.33
2022-08-17T14:58:08.979Z,27.33
2022-08-17T15:00:36.091Z,27.24
2022-08-17T15:03:03.076Z,27.72
2022-08-17T15:05:33.566Z,27.00
2022-08-17T15:08:01.701Z,26.69
2022-08-17T15:10:30.040Z,27.47
2022-08-17T15:12:57.428Z,26.81
2022-08-17T15:15:24.367Z,27.10
2022-08-17T15:17:51.698Z,27.35
2022-08-17T15:20:27.684Z,26.88
2022-08-17T15:22:55.613Z,29.25
2022-08-17T15:25:24.373Z,28.14
2022-08-17T15:27:51.430Z,28.24
2022-08-17T15:30:18.815Z,27.72
2022-08-17T15:32:45.682Z,28.61
2022-08-17T15:35:27.453Z,29.59
2022-08-17T15:38:10.529Z,28.85
2022-08-17T15:40:49.362Z,29.09
2022-08-17T15:43:27.845Z,27.56
2022-08-17T15:46:12.035Z,28.23
2022-08-17T15:48:42.369Z,28.28
2022-08-17T15:51:19.553Z,28.78
2022-08-17T15:53:49.379Z,30.17
2022-08-17T15:56:16.951Z,29.75
2022-08-17T15:58:46.643Z,30.18
2022-08-17T16:01:41.886Z,29.00
2022-08-17T16:04:07.115Z,30.04
2022-08-17T16:06:50.533Z,30.17
2022-08-17T16:09:17.142Z,30.01
2022-08-17T16:11:46.054Z,30.37
2022-08-17T16:14:20.442Z,30.06
2022-08-17T16:16:47.490Z,29.81
2022-08-17T16:19:14.064Z,30.06
2022-08-17T16:21:42.926Z,30.24
2022-08-17T16:24:13.707Z,31.52
2022-08-17T16:26:41.985Z,31.34
2022-08-17T16:29:08.930Z,31.67
2022-08-17T16:31:37.562Z,31.82
2022-08-17T16:34:17.177Z,32.34
2022-08-17T16:36:55.473Z,32.44
2022-08-17T16:39:27.140Z,32.61
2022-08-17T16:41:54.514Z,32.74
2022-08-17T16:44:21.784Z,32.09
2022-08-17T16:46:50.430Z,32.79
2022-08-17T16:49:35.537Z,33.03
2022-08-17T16:52:06.535Z,33.60
2022-08-17T16:54:35.160Z,33.47
2022-08-17T16:57:04.029Z,33.98
2022-08-17T16:59:40.292Z,34.02
2022-08-17T17:02:13.794Z,34.58
2022-08-17T17:04:56.232Z,34.79
2022-08-17T17:07:51.170Z,34.77
2022-08-17T17:10:22.882Z,35.18
2022-08-17T17:13:03.519Z,36.69
2022-08-17T17:15:51.902Z,37.60
2022-08-17T17:18:23.061Z,37.01
2022-08-17T17:20:56.468Z,37.12
2022-08-17T17:23:34.961Z,35.32
2022-08-17T17:26:13.678Z,36.06
2022-08-17T17:29:08.788Z,35.89
2022-08-17T17:31:45.232Z,38.15
2022-08-17T17:34:15.923Z,38.55
2022-08-17T17:36:54.047Z,38.64
2022-08-17T17:39:43.882Z,39.31
2022-08-17T17:42:20.861Z,39.52
2022-08-17T17:45:00.236Z,37.83
2022-08-17T17:47:33.173Z,39.06
2022-08-17T17:50:03.820Z,37.93
2022-08-17T17:52:41.050Z,37.47
2022-08-17T17:55:07.821Z,38.06
2022-08-17T17:57:56.535Z,38.73
2022-08-17T18:00:23.663Z,39.01
2022-08-17T18:03:12.961Z,39.42
2022-08-17T18:05:45.605Z,38.76
2022-08-17T18:08:35.689Z,38.16
2022-08-17T18:11:42.925Z,38.87
2022-08-17T18:14:22.009Z,39.29
2022-08-17T18:16:55.326Z,39.33
2022-08-17T18:19:25.711Z,40.04
2022-08-17T18:22:04.148Z,40.02
2022-08-17T18:24:39.743Z,40.60
2022-08-17T18:27:28.362Z,39.94
2022-08-17T18:29:57.965Z,40.83
2022-08-17T18:32:36.896Z,40.70
2022-08-17T18:35:09.696Z,40.75
2022-08-17T18:37:39.183Z,41.47
2022-08-17T18:40:28.811Z,41.35
2022-08-17T18:43:53.839Z,42.22
2022-08-17T18:46:30.871Z,43.46
2022-08-17T18:49:04.558Z,42.83
2022-08-17T18:51:41.780Z,43.66
2022-08-17T18:54:19.128Z,44.10
2022-08-17T18:56:59.835Z,45.15
2022-08-17T18:59:34.672Z,43.34
2022-08-17T19:02:38.641Z,43.83
2022-08-17T19:05:29.616Z,45.14
2022-08-17T19:08:33.343Z,46.27
2022-08-17T19:11:13.627Z,46.35
2022-08-17T19:13:47.279Z,47.38
2022-08-17T19:16:22.626Z,45.41
2022-08-17T19:18:56.267Z,44.94
2022-08-17T19:21:30.542Z,45.90
2022-08-17T19:24:07.919Z,45.01
2022-08-17T19:26:54.895Z,45.37
2022-08-17T19:29:31.691Z,45.82
2022-08-17T19:32:02.410Z,45.41
2022-08-17T19:34:35.127Z,46.10
2022-08-17T19:37:21.551Z,45.62
2022-08-17T19:40:03.632Z,47.11
2022-08-17T19:43:07.532Z,45.19
2022-08-17T19:46:03.593Z,46.42
2022-08-17T19:48:52.342Z,45.66
2022-08-17T19:51:43.583Z,45.73
2022-08-17T19:54:10.192Z,46.58
2022-08-17T19:56:36.746Z,46.05
2022-08-17T19:59:35.778Z,45.77
2022-08-17T20:02:35.145Z,46.16
2022-08-17T20:05:04.484Z,47.47
2022-08-17T20:07:57.260Z,47.47
2022-08-17T20:10:33.490Z,47.60
2022-08-17T20:13:07.351Z,47.53
2022-08-17T20:15:38.436Z,47.15
2022-08-17T20:18:13.679Z,48.22
2022-08-17T20:20:49.909Z,47.36
2022-08-17T20:23:37.923Z,48.63
2022-08-17T20:26:38.921Z,50.55
2022-08-17T20:29:13.897Z,51.10
2022-08-17T20:31:49.548Z,50.83
2022-08-17T20:34:30.857Z,50.82
2022-08-17T20:37:15.268Z,50.91
2022-08-17T20:39:46.342Z,49.91
2022-08-17T20:42:22.259Z,50.58
2022-08-17T20:44:54.280Z,51.10
2022-08-17T20:47:29.001Z,52.69
2022-08-17T20:50:11.396Z,53.24
2022-08-17T20:52:49.507Z,51.70
2022-08-17T20:55:35.381Z,52.27
2022-08-17T20:58:18.620Z,53.53
2022-08-17T21:00:50.215Z,51.77
2022-08-17T21:03:22.845Z,51.77
2022-08-17T21:06:16.848Z,52.73
2022-08-17T21:08:59.035Z,53.28
2022-08-17T21:11:56.870Z,53.57
2022-08-17T21:14:40.898Z,54.79
2022-08-17T21:17:17.134Z,55.91
2022-08-17T21:20:11.949Z,55.07
2022-08-17T21:23:02.661Z,53.79
2022-08-17T21:26:02.596Z,53.30
2022-08-17T21:29:00.804Z,52.38
2022-08-17T21:31:34.183Z,53.27
2022-08-17T21:34:16.568Z,52.93
2022-08-17T21:36:45.818Z,54.44
2022-08-17T21:39:21.466Z,53.90
2022-08-17T21:41:56.630Z,54.69
2022-08-17T21:44:31.364Z,56.00
2022-08-17T21:47:14.658Z,55.97
2022-08-17T21:49:41.635Z,56.22
2022-08-17T21:52:14.617Z,55.73
2022-08-17T21:54:48.208Z,55.42
2022-08-17T21:57:20.336Z,56.20
2022-08-17T21:59:53.384Z,56.61
2022-08-17T22:02:23.973Z,56.90
2022-08-17T22:04:56.756Z,55.01
2022-08-17T22:07:36.465Z,54.91
2022-08-17T22:10:05.173Z,55.80
2022-08-17T22:12:31.847Z,56.76
2022-08-17T22:15:06.064Z,56.59
2022-08-17T22:17:40.262Z,57.82
2022-08-17T22:20:20.747Z,59.31
2022-08-17T22:23:09.331Z,58.71
2022-08-17T22:25:38.978Z,58.19
2022-08-17T22:28:11.107Z,57.80
2022-08-17T22:31:01.011Z,55.62
2022-08-17T22:33:39.621Z,56.64
2022-08-17T22:36:24.530Z,56.71
2022-08-17T22:39:00.255Z,56.96
2022-08-17T22:41:40.570Z,57.49
2022-08-17T22:44:25.710Z,57.40
2022-08-17T22:47:16.413Z,57.81
2022-08-17T22:49:53.858Z,58.02
2022-08-17T22:52:56.024Z,58.17
2022-08-17T22:55:41.925Z,59.80
2022-08-17T22:58:33.310Z,59.65
2022-08-17T23:01:23.804Z,59.07
2022-08-17T23:03:54.636Z,59.32
2022-08-17T23:06:21.279Z,61.53
2022-08-17T23:08:54.667Z,60.16
2022-08-17T23:11:36.688Z,59.51
2022-08-17T23:14:14.550Z,60.17
2022-08-17T23:16:42.652Z,60.22
2022-08-17T23:19:15.584Z,60.46
2022-08-17T23:21:44.874Z,61.26
2022-08-17T23:24:19.424Z,60.02
2022-08-17T23:26:46.154Z,60.18
2022-08-17T23:29:13.227Z,59.77
2022-08-17T23:31:40.523Z,60.11
2022-08-17T23:34:09.926Z,58.61
2022-08-17T23:36:36.631Z,59.12
2022-08-17T23:39:06.348Z,58.85
2022-08-17T23:41:37.835Z,59.53
2022-08-17T23:44:05.957Z,59.14
2022-08-17T23:46:32.882Z,59.39
2022-08-17T23:49:00.425Z,59.96
2022-08-17T23:51:31.587Z,60.39
2022-08-17T23:54:11.659Z,61.26
2022-08-17T23:56:47.632Z,61.14
2022-08-17T23:59:16.093Z,61.23
